createdAt,value
2023-03-17T00:01:51.811Z,14
2023-03-17T00:04:39.749Z,15
2023-03-17T00:07:27.591Z,17
2023-03-17T00:10:15.467Z,16
2023-03-17T00:13:03.238Z,23
2023-03-17T00:15:51.042Z,15
2023-03-17T00:18:39.296Z,18
2023-03-17T00:21:27.065Z,13
2023-03-17T00:24:15.398Z,16
2023-03-17T00:27:03.086Z,20
2023-03-17T00:29:50.858Z,6
2023-03-17T00:32:38.630Z,16
2023-03-17T00:35:26.465Z,25
2023-03-17T00:38:14.372Z,16
2023-03-17T00:41:02.208Z,16
2023-03-17T00:43:49.987Z,20
2023-03-17T00:46:38.288Z,12
2023-03-17T00:49:26.348Z,16
2023-03-17T00:52:14.514Z,29
2023-03-17T00:55:02.143Z,10
2023-03-17T00:57:50.075Z,19
2023-03-17T01:00:37.880Z,19
2023-03-17T01:03:25.702Z,13
2023-03-17T01:06:13.435Z,17
2023-03-17T01:09:01.777Z,14
2023-03-17T01:11:49.503Z,8
2023-03-17T01:14:38.061Z,16
2023-03-17T01:17:25.943Z,11
2023-03-17T01:20:13.782Z,19
2023-03-17T01:23:01.878Z,16
2023-03-17T01:25:49.655Z,17
2023-03-17T01:28:37.340Z,6
2023-03-17T01:31:25.096Z,9
2023-03-17T01:34:12.919Z,11
2023-03-17T01:37:00.708Z,6
2023-03-17T01:39:48.518Z,10
2023-03-17T01:42:36.394Z,17
2023-03-17T01:45:24.144Z,10
2023-03-17T01:48:12.071Z,14
2023-03-17T01:50:59.755Z,17
2023-03-17T01:53:47.527Z,1
2023-03-17T01:56:35.479Z,17
2023-03-17T01:59:23.279Z,14
2023-03-17T02:02:11.031Z,10
2023-03-17T02:04:58.723Z,20
2023-03-17T02:07:46.551Z,19
2023-03-17T02:10:34.364Z,6
2023-03-17T02:13:22.122Z,17
2023-03-17T02:16:09.967Z,9
2023-03-17T02:18:57.737Z,8
2023-03-17T02:21:45.566Z,15
2023-03-17T02:24:33.458Z,15
2023-03-17T02:27:21.444Z,9
2023-03-17T02:30:09.276Z,5
2023-03-17T02:32:57.384Z,10
2023-03-17T02:35:45.220Z,16
2023-03-17T02:38:33.293Z,18
2023-03-17T02:41:21.046Z,19
2023-03-17T02:44:08.840Z,5
2023-03-17T02:46:56.642Z,3
2023-03-17T02:49:44.436Z,13
2023-03-17T02:52:32.179Z,15
2023-03-17T02:55:20.154Z,9
2023-03-17T02:58:07.866Z,0
2023-03-17T03:00:55.849Z,13
2023-03-17T03:03:43.817Z,22
2023-03-17T03:06:31.669Z,14
2023-03-17T03:09:19.480Z,15
2023-03-17T03:12:07.359Z,11
2023-03-17T03:14:55.196Z,14
2023-03-17T03:17:42.881Z,15
2023-03-17T03:20:31.011Z,19
2023-03-17T03:23:19.008Z,13
2023-03-17T03:26:06.800Z,8
2023-03-17T03:28:54.530Z,11
2023-03-17T03:31:42.203Z,19
2023-03-17T03:34:30.023Z,14
2023-03-17T03:37:17.830Z,16
2023-03-17T03:40:05.654Z,10
2023-03-17T03:42:53.303Z,8
2023-03-17T03:45:43.756Z,6
2023-03-17T03:48:31.464Z,15
2023-03-17T03:51:19.368Z,10
2023-03-17T03:54:07.333Z,7
2023-03-17T03:56:55.135Z,11
2023-03-17T03:59:42.896Z,2
2023-03-17T04:02:30.819Z,4
2023-03-17T04:05:18.825Z,13
2023-03-17T04:08:06.754Z,11
2023-03-17T04:10:54.595Z,13
2023-03-17T04:13:42.431Z,15
2023-03-17T04:16:30.108Z,12
2023-03-17T04:19:18.107Z,16
2023-03-17T04:22:05.909Z,18
2023-03-17T04:24:53.786Z,11
2023-03-17T04:27:41.704Z,17
2023-03-17T04:30:29.795Z,13
2023-03-17T04:33:17.728Z,12
2023-03-17T04:36:05.606Z,18
2023-03-17T04:38:53.419Z,18
2023-03-17T04:41:41.019Z,14
2023-03-17T04:44:28.906Z,4
2023-03-17T04:47:16.793Z,14
2023-03-17T04:50:04.581Z,16
2023-03-17T04:52:53.237Z,2
2023-03-17T04:55:41.168Z,15
2023-03-17T04:58:31.005Z,19
2023-03-17T05:01:19.226Z,12
2023-03-17T05:04:07.041Z,15
2023-03-17T05:06:54.707Z,24
2023-03-17T05:09:42.351Z,27
2023-03-17T05:12:30.068Z,30
2023-03-17T05:15:17.876Z,39
2023-03-17T05:18:05.688Z,66
2023-03-17T05:20:53.571Z,77
2023-03-17T05:23:41.326Z,129
2023-03-17T05:26:29.188Z,164
2023-03-17T05:29:16.868Z,228
2023-03-17T05:32:04.644Z,313
2023-03-17T05:34:52.690Z,384
2023-03-17T05:37:40.629Z,435
2023-03-17T05:40:28.649Z,507
2023-03-17T05:43:16.758Z,574
2023-03-17T05:46:04.592Z,648
2023-03-17T05:48:52.760Z,683
2023-03-17T05:51:40.625Z,723
2023-03-17T05:54:28.406Z,750
2023-03-17T05:57:16.200Z,780
2023-03-17T06:00:04.138Z,805
2023-03-17T06:02:52.882Z,816
2023-03-17T06:05:40.905Z,844
2023-03-17T06:08:28.811Z,864
2023-03-17T06:11:16.690Z,881
2023-03-17T06:14:04.421Z,890
2023-03-17T06:16:52.411Z,905
2023-03-17T06:19:40.108Z,914
2023-03-17T06:22:27.879Z,927
2023-03-17T06:25:25.447Z,931
2023-03-17T06:28:13.388Z,951
2023-03-17T06:31:01.261Z,952
2023-03-17T06:33:49.349Z,964
2023-03-17T06:36:38.607Z,966
2023-03-17T06:39:26.507Z,958
2023-03-17T06:42:14.241Z,968
2023-03-17T06:45:01.971Z,969
2023-03-17T06:47:50.669Z,971
2023-03-17T06:50:38.612Z,983
2023-03-17T06:53:26.390Z,983
2023-03-17T06:56:27.322Z,973
2023-03-17T06:59:17.063Z,979
2023-03-17T07:02:04.924Z,980
2023-03-17T07:04:52.700Z,975
2023-03-17T07:07:40.668Z,984
2023-03-17T07:10:28.451Z,991
2023-03-17T07:13:16.359Z,990
2023-03-17T07:16:04.370Z,981
2023-03-17T07:18:52.427Z,988
2023-03-17T07:21:40.200Z,989
2023-03-17T07:24:28.095Z,990
2023-03-17T07:27:15.745Z,993
2023-03-17T07:30:03.469Z,993
2023-03-17T07:32:51.412Z,999
2023-03-17T07:35:39.484Z,990
2023-03-17T07:38:27.561Z,986
2023-03-17T07:41:15.408Z,992
2023-03-17T07:44:03.229Z,984
2023-03-17T07:46:50.988Z,994
2023-03-17T07:49:41.876Z,983
2023-03-17T07:52:30.159Z,984
2023-03-17T07:55:17.795Z,991
2023-03-17T07:58:05.749Z,992
2023-03-17T08:00:53.459Z,993
2023-03-17T08:03:41.843Z,994
2023-03-17T08:06:30.169Z,1002
2023-03-17T08:09:17.894Z,993
2023-03-17T08:12:05.610Z,995
2023-03-17T08:14:53.454Z,1000
2023-03-17T08:17:41.121Z,996
2023-03-17T08:20:29.266Z,992
2023-03-17T08:23:17.366Z,1003
2023-03-17T08:26:05.333Z,999
2023-03-17T08:28:53.242Z,1022
2023-03-17T08:31:41.116Z,993
2023-03-17T08:34:28.804Z,996
2023-03-17T08:37:16.709Z,1004
2023-03-17T08:40:04.575Z,1004
2023-03-17T08:42:53.074Z,1000
2023-03-17T08:45:40.808Z,1006
2023-03-17T08:48:28.847Z,1004
2023-03-17T08:51:18.661Z,1003
2023-03-17T08:54:06.946Z,1010
2023-03-17T08:56:54.644Z,991
2023-03-17T08:59:42.411Z,998
2023-03-17T09:02:30.174Z,1003
2023-03-17T09:05:18.159Z,1005
2023-03-17T09:08:05.858Z,1007
2023-03-17T09:10:53.652Z,1009
2023-03-17T09:13:41.455Z,999
2023-03-17T09:16:29.458Z,1003
2023-03-17T09:19:17.338Z,1023
2023-03-17T09:22:05.222Z,994
2023-03-17T09:24:52.895Z,1004
2023-03-17T09:27:40.645Z,992
2023-03-17T09:30:28.454Z,1004
2023-03-17T09:33:16.295Z,1003
2023-03-17T09:36:04.010Z,994
2023-03-17T09:38:52.285Z,997
2023-03-17T09:41:39.800Z,995
2023-03-17T09:44:27.604Z,1007
2023-03-17T09:47:15.572Z,1002
2023-03-17T09:50:03.355Z,993
2023-03-17T09:52:51.959Z,1005
2023-03-17T09:55:39.791Z,1002
2023-03-17T09:58:27.470Z,1006
2023-03-17T10:01:15.277Z,1003
2023-03-17T10:04:03.241Z,1004
2023-03-17T10:06:50.789Z,1003
2023-03-17T10:09:38.499Z,1009
2023-03-17T10:12:26.182Z,1005
2023-03-17T10:15:13.967Z,1010
2023-03-17T10:18:02.102Z,1008
2023-03-17T10:20:51.487Z,1009
2023-03-17T10:23:39.472Z,1011
2023-03-17T10:26:27.047Z,1008
2023-03-17T10:29:14.725Z,1011
2023-03-17T10:32:02.296Z,1003
2023-03-17T10:34:50.479Z,1010
2023-03-17T10:37:38.327Z,997
2023-03-17T10:40:34.161Z,1014
2023-03-17T10:43:21.933Z,1007
2023-03-17T10:46:09.666Z,998
2023-03-17T10:48:57.652Z,1005
2023-03-17T10:51:45.416Z,1011
2023-03-17T10:54:33.076Z,1007
2023-03-17T10:57:20.900Z,1011
2023-03-17T11:00:08.504Z,1008
2023-03-17T11:02:56.352Z,1006
2023-03-17T11:05:44.156Z,999
2023-03-17T11:08:31.908Z,993
2023-03-17T11:11:20.619Z,1008
2023-03-17T11:14:09.037Z,999
2023-03-17T11:16:56.572Z,1006
2023-03-17T11:19:44.247Z,999
2023-03-17T11:22:31.826Z,1007
2023-03-17T11:25:19.654Z,994
2023-03-17T11:28:07.378Z,1000
2023-03-17T11:30:55.072Z,1001
2023-03-17T11:33:43.014Z,992
2023-03-17T11:36:30.741Z,994
2023-03-17T11:39:19.598Z,1008
2023-03-17T11:42:07.407Z,1003
2023-03-17T11:44:55.167Z,1007
2023-03-17T11:47:42.815Z,1005
2023-03-17T11:50:30.796Z,1008
2023-03-17T11:53:18.468Z,991
2023-03-17T11:56:06.044Z,1002
2023-03-17T11:58:53.948Z,1005
2023-03-17T12:01:41.604Z,1011
2023-03-17T12:04:29.249Z,1007
2023-03-17T12:07:16.804Z,1005
2023-03-17T12:10:04.503Z,997
2023-03-17T12:12:52.838Z,1007
2023-03-17T12:15:40.851Z,1005
2023-03-17T12:18:28.918Z,999
2023-03-17T12:21:16.699Z,1004
2023-03-17T12:24:04.491Z,1002
2023-03-17T12:26:52.268Z,999
2023-03-17T12:29:39.909Z,1001
2023-03-17T12:32:27.783Z,1002
2023-03-17T12:35:15.727Z,999
2023-03-17T12:38:03.550Z,988
2023-03-17T12:40:51.231Z,990
2023-03-17T12:43:38.997Z,992
2023-03-17T12:46:26.633Z,990
2023-03-17T12:49:14.467Z,985
2023-03-17T12:52:02.156Z,992
2023-03-17T12:54:49.848Z,990
2023-03-17T12:57:37.421Z,998
2023-03-17T13:00:25.285Z,983
2023-03-17T13:03:12.875Z,997
2023-03-17T13:06:00.841Z,992
2023-03-17T13:08:48.600Z,991
2023-03-17T13:11:36.233Z,991
2023-03-17T13:14:23.915Z,995
2023-03-17T13:17:11.714Z,994
2023-03-17T13:19:59.339Z,995
2023-03-17T13:22:47.194Z,998
2023-03-17T13:25:35.215Z,994
2023-03-17T13:28:22.968Z,1002
2023-03-17T13:31:10.650Z,992
2023-03-17T13:33:58.445Z,983
2023-03-17T13:36:46.089Z,989
2023-03-17T13:39:33.937Z,984
2023-03-17T13:42:21.643Z,990
2023-03-17T13:45:09.255Z,989
2023-03-17T13:47:56.901Z,982
2023-03-17T13:50:44.537Z,987
2023-03-17T13:53:34.908Z,988
2023-03-17T13:56:22.681Z,991
2023-03-17T13:59:10.545Z,982
2023-03-17T14:01:58.236Z,987
2023-03-17T14:04:45.860Z,981
2023-03-17T14:07:33.798Z,982
2023-03-17T14:10:21.396Z,977
2023-03-17T14:13:09.093Z,987
2023-03-17T14:15:56.797Z,988
2023-03-17T14:18:44.819Z,990
2023-03-17T14:21:32.505Z,991
2023-03-17T14:24:20.239Z,992
2023-03-17T14:27:07.758Z,996
2023-03-17T14:29:55.533Z,995
2023-03-17T14:32:43.419Z,995
2023-03-17T14:35:32.105Z,1008
2023-03-17T14:38:20.175Z,1006
2023-03-17T14:41:07.909Z,983
2023-03-17T14:43:55.511Z,1004
2023-03-17T14:46:43.293Z,995
2023-03-17T14:49:31.725Z,970
2023-03-17T14:52:19.456Z,973
2023-03-17T14:55:07.156Z,979
2023-03-17T14:57:54.937Z,966
2023-03-17T15:00:42.515Z,984
2023-03-17T15:03:30.469Z,979
2023-03-17T15:06:18.470Z,978
2023-03-17T15:09:13.526Z,980
2023-03-17T15:12:01.139Z,965
2023-03-17T15:14:48.676Z,970
2023-03-17T15:17:36.246Z,961
2023-03-17T15:20:23.811Z,967
2023-03-17T15:23:11.469Z,962
2023-03-17T15:25:59.073Z,956
2023-03-17T15:28:46.593Z,956
2023-03-17T15:31:34.248Z,956
2023-03-17T15:34:22.038Z,960
2023-03-17T15:37:09.581Z,958
2023-03-17T15:39:57.248Z,954
2023-03-17T15:42:45.130Z,945
2023-03-17T15:45:32.634Z,955
2023-03-17T15:48:20.554Z,953
2023-03-17T15:51:08.122Z,949
2023-03-17T15:53:55.682Z,946
2023-03-17T15:56:43.535Z,952
2023-03-17T15:59:31.067Z,942
2023-03-17T16:02:18.714Z,947
2023-03-17T16:05:06.381Z,937
2023-03-17T16:07:54.153Z,944
2023-03-17T16:10:41.834Z,944
2023-03-17T16:13:29.661Z,922
2023-03-17T16:16:17.411Z,922
2023-03-17T16:19:05.229Z,917
2023-03-17T16:21:52.965Z,909
2023-03-17T16:24:40.547Z,904
2023-03-17T16:27:28.396Z,898
2023-03-17T16:30:16.111Z,909
2023-03-17T16:33:03.857Z,903
2023-03-17T16:35:51.469Z,895
2023-03-17T16:38:39.139Z,888
2023-03-17T16:41:26.839Z,887
2023-03-17T16:44:14.622Z,875
2023-03-17T16:47:02.559Z,872
2023-03-17T16:49:50.391Z,867
2023-03-17T16:52:38.171Z,861
2023-03-17T16:55:26.225Z,852
2023-03-17T16:58:13.844Z,830
2023-03-17T17:01:01.665Z,831
2023-03-17T17:03:49.561Z,837
2023-03-17T17:06:37.319Z,821
2023-03-17T17:09:25.134Z,801
2023-03-17T17:12:12.763Z,805
2023-03-17T17:15:00.448Z,791
2023-03-17T17:17:48.161Z,767
2023-03-17T17:20:36.077Z,732
2023-03-17T17:23:23.845Z,699
2023-03-17T17:26:12.696Z,667
2023-03-17T17:29:00.486Z,600
2023-03-17T17:31:51.957Z,553
2023-03-17T17:34:39.790Z,500
2023-03-17T17:37:27.448Z,437
2023-03-17T17:40:15.256Z,380
2023-03-17T17:43:02.958Z,316
2023-03-17T17:45:50.816Z,239
2023-03-17T17:48:38.672Z,173
2023-03-17T17:51:26.415Z,123
2023-03-17T17:54:14.090Z,77
2023-03-17T17:57:01.660Z,54
2023-03-17T17:59:49.321Z,49
2023-03-17T18:02:37.014Z,44
2023-03-17T18:05:24.689Z,27
2023-03-17T18:08:12.443Z,23
2023-03-17T18:11:00.461Z,19
2023-03-17T18:13:48.185Z,20
2023-03-17T18:16:36.046Z,19
2023-03-17T18:19:23.803Z,22
2023-03-17T18:22:11.436Z,22
2023-03-17T18:24:59.238Z,19
2023-03-17T18:27:47.005Z,8
2023-03-17T18:30:35.346Z,16
2023-03-17T18:33:23.283Z,12
2023-03-17T18:36:11.028Z,12
2023-03-17T18:38:58.697Z,22
2023-03-17T18:41:46.404Z,22
2023-03-17T18:44:34.431Z,10
2023-03-17T18:47:22.201Z,26
2023-03-17T18:50:09.703Z,20
2023-03-17T18:52:57.457Z,22
2023-03-17T18:55:45.047Z,19
2023-03-17T18:58:32.797Z,19
2023-03-17T19:01:20.764Z,20
2023-03-17T19:04:08.597Z,18
2023-03-17T19:06:56.247Z,21
2023-03-17T19:09:43.964Z,12
2023-03-17T19:12:31.789Z,19
2023-03-17T19:15:19.643Z,15
2023-03-17T19:18:07.300Z,18
2023-03-17T19:20:54.983Z,12
2023-03-17T19:23:42.819Z,17
2023-03-17T19:26:32.040Z,17
2023-03-17T19:29:19.672Z,21
2023-03-17T19:32:07.469Z,18
2023-03-17T19:34:55.639Z,21
2023-03-17T19:37:43.323Z,16
2023-03-17T19:40:31.132Z,10
2023-03-17T19:43:32.726Z,19
2023-03-17T19:46:26.759Z,18
2023-03-17T19:49:14.422Z,17
2023-03-17T19:52:02.219Z,23
2023-03-17T19:54:49.952Z,17
2023-03-17T19:57:37.730Z,20
2023-03-17T20:00:25.474Z,9
2023-03-17T20:03:12.981Z,15
2023-03-17T20:06:00.682Z,21
2023-03-17T20:08:48.338Z,5
2023-03-17T20:11:36.079Z,19
2023-03-17T20:14:23.714Z,18
2023-03-17T20:17:11.585Z,15
2023-03-17T20:19:59.323Z,25
2023-03-17T20:22:47.081Z,15
2023-03-17T20:25:34.783Z,15
2023-03-17T20:28:22.468Z,11
2023-03-17T20:31:10.020Z,18
2023-03-17T20:33:57.939Z,17
2023-03-17T20:36:45.608Z,22
2023-03-17T20:39:33.312Z,10
2023-03-17T20:42:21.024Z,19
2023-03-17T20:45:08.707Z,18
2023-03-17T20:47:56.524Z,17
2023-03-17T20:50:44.227Z,13
2023-03-17T20:53:31.960Z,17
2023-03-17T20:56:19.735Z,14
2023-03-17T20:59:07.516Z,15
2023-03-17T21:01:55.355Z,13
2023-03-17T21:04:43.141Z,16
2023-03-17T21:07:30.700Z,21
2023-03-17T21:10:18.340Z,17
2023-03-17T21:13:06.208Z,20
2023-03-17T21:15:54.061Z,20
2023-03-17T21:18:42.101Z,21
2023-03-17T21:21:29.795Z,19
2023-03-17T21:24:17.505Z,20
2023-03-17T21:27:05.175Z,13
2023-03-17T21:29:52.899Z,21
2023-03-17T21:32:40.723Z,20
2023-03-17T21:35:28.751Z,13
2023-03-17T21:38:16.743Z,17
2023-03-17T21:41:04.325Z,12
2023-03-17T21:43:51.970Z,16
2023-03-17T21:46:39.610Z,21
2023-03-17T21:49:27.408Z,21
2023-03-17T21:52:15.060Z,15
2023-03-17T21:55:02.773Z,11
2023-03-17T21:57:50.326Z,17
2023-03-17T22:00:44.972Z,13
2023-03-17T22:03:33.379Z,9
2023-03-17T22:06:21.393Z,6
2023-03-17T22:09:09.165Z,15
2023-03-17T22:11:56.810Z,12
2023-03-17T22:14:44.593Z,21
2023-03-17T22:17:32.260Z,5
2023-03-17T22:20:20.068Z,22
2023-03-17T22:23:07.723Z,10
2023-03-17T22:25:55.406Z,20
2023-03-17T22:28:42.907Z,11
2023-03-17T22:31:30.676Z,15
2023-03-17T22:34:18.655Z,20
2023-03-17T22:37:06.355Z,6
2023-03-17T22:39:54.067Z,12
2023-03-17T22:42:41.630Z,20
2023-03-17T22:45:29.350Z,11
2023-03-17T22:48:17.316Z,12
2023-03-17T22:51:04.999Z,12
2023-03-17T22:53:52.800Z,13
2023-03-17T22:56:40.459Z,12
2023-03-17T22:59:28.158Z,8
2023-03-17T23:02:18.063Z,4
2023-03-17T23:05:06.217Z,18
2023-03-17T23:07:53.967Z,5
2023-03-17T23:10:41.700Z,7
2023-03-17T23:13:29.468Z,10
2023-03-17T23:16:17.121Z,10
2023-03-17T23:19:05.047Z,14
2023-03-17T23:21:52.668Z,3
2023-03-17T23:24:40.396Z,2
2023-03-17T23:27:28.267Z,8
2023-03-17T23:30:15.979Z,13
2023-03-17T23:33:03.827Z,10
2023-03-17T23:35:51.625Z,17
2023-03-17T23:38:39.461Z,20
2023-03-17T23:41:27.139Z,13
2023-03-17T23:44:14.990Z,15
2023-03-17T23:47:02.705Z,19
2023-03-17T23:49:50.432Z,12
2023-03-17T23:52:38.109Z,15
2023-03-17T23:55:25.841Z,12
2023-03-17T23:58:13.697Z,14
